createdAt,value
2022-11-20T00:00:52.747Z,2.60
2022-11-20T00:03:19.908Z,2.60
2022-11-20T00:05:47.555Z,2.60
2022-11-20T00:08:14.734Z,2.60
2022-11-20T00:10:42.314Z,2.60
2022-11-20T00:13:09.451Z,2.50
2022-11-20T00:15:36.529Z,2.50
2022-11-20T00:18:03.716Z,2.50
2022-11-20T00:20:31.590Z,2.50
2022-11-20T00:22:59.270Z,2.50
2022-11-20T00:25:26.758Z,2.50
2022-11-20T00:27:54.101Z,2.50
2022-11-20T00:30:21.274Z,2.50
2022-11-20T00:32:48.257Z,2.50
2022-11-20T00:35:15.575Z,2.60
2022-11-20T00:37:43.041Z,2.60
2022-11-20T00:40:10.735Z,2.60
2022-11-20T00:42:38.165Z,2.60
2022-11-20T00:45:06.425Z,2.50
2022-11-20T00:47:33.694Z,2.50
2022-11-20T00:50:00.991Z,2.50
2022-11-20T00:52:28.114Z,2.50
2022-11-20T00:54:55.406Z,2.50
2022-11-20T00:57:22.524Z,2.50
2022-11-20T00:59:49.632Z,2.50
2022-11-20T01:02:17.560Z,2.60
2022-11-20T01:04:44.638Z,2.60
2022-11-20T01:07:11.690Z,2.60
2022-11-20T01:09:39.351Z,2.60
2022-11-20T01:12:06.433Z,2.60
2022-11-20T01:14:33.515Z,2.60
2022-11-20T01:17:00.516Z,2.60
2022-11-20T01:19:27.635Z,2.60
2022-11-20T01:21:55.482Z,2.60
2022-11-20T01:24:23.496Z,2.60
2022-11-20T01:26:52.304Z,2.60
2022-11-20T01:29:23.126Z,2.60
2022-11-20T01:31:51.065Z,2.50
2022-11-20T01:34:20.505Z,2.60
2022-11-20T01:36:47.885Z,2.60
2022-11-20T01:39:19.904Z,2.60
2022-11-20T01:42:10.090Z,2.60
2022-11-20T01:45:00.647Z,2.60
2022-11-20T01:47:31.758Z,2.60
2022-11-20T01:50:05.558Z,2.60
2022-11-20T01:52:39.159Z,2.60
2022-11-20T01:55:11.339Z,2.70
2022-11-20T01:57:41.221Z,2.70
2022-11-20T02:00:12.972Z,2.70
2022-11-20T02:02:43.031Z,2.70
2022-11-20T02:05:20.475Z,2.80
2022-11-20T02:07:48.301Z,2.80
2022-11-20T02:10:16.458Z,2.80
2022-11-20T02:13:03.750Z,2.80
2022-11-20T02:15:31.187Z,2.80
2022-11-20T02:17:58.709Z,2.80
2022-11-20T02:20:26.216Z,2.80
2022-11-20T02:22:59.063Z,2.90
2022-11-20T02:25:28.064Z,2.90
2022-11-20T02:27:55.660Z,2.90
2022-11-20T02:30:22.985Z,2.90
2022-11-20T02:32:50.296Z,2.80
2022-11-20T02:35:20.761Z,2.90
2022-11-20T02:37:51.956Z,2.90
2022-11-20T02:40:19.243Z,2.80
2022-11-20T02:42:46.331Z,2.80
2022-11-20T02:45:13.918Z,2.80
2022-11-20T02:47:40.968Z,2.80
2022-11-20T02:50:08.243Z,2.70
2022-11-20T02:52:35.532Z,2.70
2022-11-20T02:55:02.522Z,2.70
2022-11-20T02:57:29.838Z,2.70
2022-11-20T02:59:56.919Z,2.80
2022-11-20T03:02:24.222Z,2.80
2022-11-20T03:04:51.324Z,2.80
2022-11-20T03:07:18.498Z,2.80
2022-11-20T03:09:45.638Z,2.90
2022-11-20T03:12:12.658Z,2.80
2022-11-20T03:14:39.817Z,2.80
2022-11-20T03:17:06.912Z,2.90
2022-11-20T03:19:35.332Z,2.80
2022-11-20T03:22:02.511Z,2.90
2022-11-20T03:24:29.728Z,2.80
2022-11-20T03:26:56.815Z,2.80
2022-11-20T03:29:23.950Z,2.80
2022-11-20T03:31:51.140Z,2.80
2022-11-20T03:34:18.306Z,2.80
2022-11-20T03:36:46.228Z,2.80
2022-11-20T03:39:13.372Z,2.80
2022-11-20T03:41:42.531Z,2.80
2022-11-20T03:44:11.290Z,2.80
2022-11-20T03:46:38.705Z,2.90
2022-11-20T03:49:06.320Z,2.90
2022-11-20T03:51:36.587Z,2.90
2022-11-20T03:54:07.893Z,2.90
2022-11-20T03:56:37.620Z,2.90
2022-11-20T03:59:05.611Z,2.90
2022-11-20T04:01:35.836Z,2.90
2022-11-20T04:04:03.795Z,2.90
2022-11-20T04:06:35.368Z,2.80
2022-11-20T04:09:02.504Z,2.80
2022-11-20T04:11:31.715Z,2.90
2022-11-20T04:14:01.037Z,2.80
2022-11-20T04:16:31.406Z,2.80
2022-11-20T04:19:00.589Z,2.80
2022-11-20T04:21:28.315Z,2.90
2022-11-20T04:23:56.179Z,2.80
2022-11-20T04:26:25.310Z,2.80
2022-11-20T04:28:52.575Z,2.80
2022-11-20T04:31:23.570Z,2.70
2022-11-20T04:33:51.326Z,2.70
2022-11-20T04:36:21.321Z,2.70
2022-11-20T04:38:56.772Z,2.70
2022-11-20T04:41:27.058Z,2.80
2022-11-20T04:44:00.858Z,2.80
2022-11-20T04:46:29.294Z,2.80
2022-11-20T04:48:56.806Z,2.80
2022-11-20T04:51:24.195Z,2.90
2022-11-20T04:53:51.639Z,2.90
2022-11-20T04:56:19.031Z,2.80
2022-11-20T04:58:46.351Z,2.90
2022-11-20T05:01:16.194Z,2.90
2022-11-20T05:03:44.606Z,2.90
2022-11-20T05:06:15.019Z,2.90
2022-11-20T05:08:42.814Z,2.90
2022-11-20T05:11:13.081Z,2.90
2022-11-20T05:13:40.972Z,2.90
2022-11-20T05:16:12.121Z,2.90
2022-11-20T05:18:40.384Z,2.80
2022-11-20T05:21:08.585Z,2.90
2022-11-20T05:23:36.866Z,2.90
2022-11-20T05:26:04.502Z,2.90
2022-11-20T05:28:32.390Z,2.90
2022-11-20T05:31:07.209Z,2.90
2022-11-20T05:33:35.766Z,2.90
2022-11-20T05:36:04.907Z,2.80
2022-11-20T05:38:32.102Z,2.80
2022-11-20T05:41:08.920Z,2.80
2022-11-20T05:43:37.328Z,2.80
2022-11-20T05:46:05.702Z,2.80
2022-11-20T05:48:34.206Z,2.80
2022-11-20T05:51:04.050Z,2.90
2022-11-20T05:53:31.461Z,2.80
2022-11-20T05:56:19.894Z,2.90
2022-11-20T05:58:47.976Z,2.90
2022-11-20T06:01:18.874Z,2.80
2022-11-20T06:03:48.508Z,2.90
2022-11-20T06:06:17.633Z,2.90
2022-11-20T06:08:45.608Z,2.90
2022-11-20T06:11:15.118Z,3.00
2022-11-20T06:13:43.046Z,3.00
2022-11-20T06:16:11.873Z,3.00
2022-11-20T06:18:39.336Z,3.00
2022-11-20T06:21:10.022Z,3.00
2022-11-20T06:23:38.017Z,3.00
2022-11-20T06:26:08.917Z,3.00
2022-11-20T06:28:36.442Z,3.00
2022-11-20T06:31:04.369Z,3.00
2022-11-20T06:33:31.844Z,3.00
2022-11-20T06:36:04.500Z,3.10
2022-11-20T06:38:34.482Z,3.10
2022-11-20T06:41:01.544Z,3.10
2022-11-20T06:43:30.476Z,3.10
2022-11-20T06:45:59.608Z,3.10
2022-11-20T06:48:29.312Z,3.10
2022-11-20T06:50:56.991Z,3.10
2022-11-20T06:53:25.024Z,3.10
2022-11-20T06:55:52.563Z,3.10
2022-11-20T06:58:19.982Z,3.20
2022-11-20T07:00:47.101Z,3.20
2022-11-20T07:03:14.393Z,3.20
2022-11-20T07:05:41.752Z,3.30
2022-11-20T07:08:09.448Z,3.30
2022-11-20T07:10:36.785Z,3.30
2022-11-20T07:13:04.123Z,3.30
2022-11-20T07:15:31.291Z,3.30
2022-11-20T07:18:02.682Z,3.30
2022-11-20T07:20:29.944Z,3.40
2022-11-20T07:22:58.119Z,3.30
2022-11-20T07:25:26.511Z,3.40
2022-11-20T07:27:53.816Z,3.50
2022-11-20T07:30:20.862Z,3.40
2022-11-20T07:32:48.713Z,3.50
2022-11-20T07:35:16.039Z,3.50
2022-11-20T07:37:43.222Z,3.50
2022-11-20T07:40:10.894Z,3.50
2022-11-20T07:42:37.987Z,3.50
2022-11-20T07:45:05.630Z,3.60
2022-11-20T07:47:40.035Z,3.60
2022-11-20T07:50:07.454Z,3.60
2022-11-20T07:52:34.813Z,3.50
2022-11-20T07:55:02.060Z,3.50
2022-11-20T07:57:29.176Z,3.50
2022-11-20T07:59:56.323Z,3.40
2022-11-20T08:02:23.364Z,3.40
2022-11-20T08:04:50.560Z,3.40
2022-11-20T08:07:18.067Z,3.50
2022-11-20T08:09:45.205Z,3.50
2022-11-20T08:12:39.961Z,3.50
2022-11-20T08:15:12.808Z,3.60
2022-11-20T08:17:40.542Z,3.60
2022-11-20T08:20:08.306Z,3.70
2022-11-20T08:22:35.886Z,3.70
2022-11-20T08:25:03.073Z,3.80
2022-11-20T08:27:30.382Z,3.80
2022-11-20T08:29:57.462Z,3.90
2022-11-20T08:32:24.728Z,4.00
2022-11-20T08:34:51.963Z,4.00
2022-11-20T08:37:19.298Z,4.10
2022-11-20T08:39:46.418Z,4.10
2022-11-20T08:42:13.483Z,4.20
2022-11-20T08:44:40.743Z,4.30
2022-11-20T08:47:07.931Z,4.40
2022-11-20T08:49:35.272Z,4.50
2022-11-20T08:52:02.387Z,4.50
2022-11-20T08:54:29.521Z,4.60
2022-11-20T08:56:56.688Z,4.70
2022-11-20T08:59:43.744Z,4.70
2022-11-20T09:02:11.128Z,4.80
2022-11-20T09:04:38.862Z,4.90
2022-11-20T09:07:06.655Z,5.00
2022-11-20T09:09:34.062Z,5.00
2022-11-20T09:12:01.385Z,5.10
2022-11-20T09:14:30.293Z,5.10
2022-11-20T09:16:57.858Z,5.20
2022-11-20T09:19:35.446Z,5.20
2022-11-20T09:22:03.379Z,5.20
2022-11-20T09:24:31.064Z,5.30
2022-11-20T09:26:58.276Z,5.30
2022-11-20T09:29:25.455Z,5.30
2022-11-20T09:31:52.603Z,5.30
2022-11-20T09:34:19.905Z,5.40
2022-11-20T09:36:47.326Z,5.40
2022-11-20T09:39:14.404Z,5.40
2022-11-20T09:41:52.218Z,5.60
2022-11-20T09:44:35.476Z,5.60
2022-11-20T09:47:23.487Z,5.60
2022-11-20T09:50:23.893Z,5.70
2022-11-20T09:53:22.589Z,5.80
2022-11-20T09:55:50.435Z,6.00
2022-11-20T09:58:47.003Z,6.10
2022-11-20T10:01:18.035Z,6.10
2022-11-20T10:04:07.617Z,6.20
2022-11-20T10:06:43.087Z,6.20
2022-11-20T10:09:13.765Z,6.20
2022-11-20T10:12:00.723Z,6.20
2022-11-20T10:14:37.617Z,6.10
2022-11-20T10:17:12.126Z,6.20
2022-11-20T10:20:19.111Z,6.20
2022-11-20T10:23:00.863Z,6.10
2022-11-20T10:25:51.355Z,6.10
2022-11-20T10:28:26.248Z,6.20
2022-11-20T10:31:01.894Z,6.20
2022-11-20T10:33:57.002Z,6.30
2022-11-20T10:36:29.114Z,6.40
2022-11-20T10:39:02.650Z,6.40
2022-11-20T10:41:38.259Z,6.60
2022-11-20T10:44:06.830Z,6.70
2022-11-20T10:46:45.915Z,6.80
2022-11-20T10:49:17.885Z,6.80
2022-11-20T10:52:03.647Z,7.10
2022-11-20T10:54:35.230Z,7.20
2022-11-20T10:57:28.673Z,7.20
2022-11-20T11:00:18.439Z,7.40
2022-11-20T11:02:51.301Z,7.60
2022-11-20T11:05:21.750Z,7.80
2022-11-20T11:07:56.737Z,8.00
2022-11-20T11:10:48.434Z,8.20
2022-11-20T11:13:32.106Z,8.30
2022-11-20T11:15:59.472Z,8.10
2022-11-20T11:18:28.000Z,7.80
2022-11-20T11:20:57.299Z,7.80
2022-11-20T11:23:34.104Z,7.90
2022-11-20T11:26:03.366Z,8.20
2022-11-20T11:28:30.710Z,8.40
2022-11-20T11:30:57.918Z,8.80
2022-11-20T11:33:29.129Z,9.10
2022-11-20T11:35:59.504Z,9.20
2022-11-20T11:38:35.572Z,9.30
2022-11-20T11:41:04.490Z,9.40
2022-11-20T11:43:54.630Z,9.30
2022-11-20T11:46:21.744Z,9.50
2022-11-20T11:49:02.109Z,9.40
2022-11-20T11:51:35.775Z,9.50
2022-11-20T11:54:10.883Z,9.50
2022-11-20T11:56:38.269Z,9.40
2022-11-20T11:59:11.886Z,9.30
2022-11-20T12:01:42.074Z,9.30
2022-11-20T12:04:36.814Z,9.20
2022-11-20T12:07:44.985Z,9.10
2022-11-20T12:10:04.608Z,8.80
2022-11-20T12:12:37.779Z,8.60
2022-11-20T12:15:10.881Z,8.40
2022-11-20T12:17:38.194Z,8.50
2022-11-20T12:20:14.312Z,8.40
2022-11-20T12:22:58.442Z,8.50
2022-11-20T12:25:30.612Z,8.40
2022-11-20T12:28:20.979Z,8.40
2022-11-20T12:31:18.847Z,8.30
2022-11-20T12:34:09.212Z,8.10
2022-11-20T12:36:46.032Z,8.00
2022-11-20T12:39:17.731Z,7.80
2022-11-20T12:42:24.859Z,7.70
2022-11-20T12:45:15.583Z,7.80
2022-11-20T12:48:10.145Z,7.70
2022-11-20T12:51:00.149Z,7.60
2022-11-20T12:54:09.146Z,7.60
2022-11-20T12:57:09.156Z,7.70
2022-11-20T13:00:05.283Z,7.70
2022-11-20T13:03:09.059Z,7.80
2022-11-20T13:06:00.573Z,7.70
2022-11-20T13:08:35.358Z,7.90
2022-11-20T13:11:22.449Z,7.90
2022-11-20T13:14:09.579Z,8.10
2022-11-20T13:17:05.706Z,8.30
2022-11-20T13:19:34.338Z,8.50
2022-11-20T13:22:01.652Z,8.60
2022-11-20T13:24:31.625Z,8.60
2022-11-20T13:27:14.848Z,8.50
2022-11-20T13:29:46.336Z,8.30
2022-11-20T13:32:22.309Z,8.20
2022-11-20T13:34:55.676Z,8.00
2022-11-20T13:37:28.036Z,7.70
2022-11-20T13:40:12.602Z,7.60
2022-11-20T13:42:44.037Z,7.60
2022-11-20T13:45:25.282Z,7.50
2022-11-20T13:47:54.230Z,7.50
2022-11-20T13:50:33.881Z,7.50
2022-11-20T13:53:15.338Z,7.50
2022-11-20T13:55:56.035Z,7.50
2022-11-20T13:58:24.209Z,7.50
2022-11-20T14:00:59.334Z,7.50
2022-11-20T14:04:04.112Z,7.40
2022-11-20T14:06:28.622Z,7.40
2022-11-20T14:08:58.103Z,7.30
2022-11-20T14:11:28.508Z,7.30
2022-11-20T14:13:58.538Z,7.20
2022-11-20T14:16:28.328Z,7.20
2022-11-20T14:18:57.046Z,7.10
2022-11-20T14:21:28.335Z,7.00
2022-11-20T14:24:05.674Z,7.00
2022-11-20T14:26:33.455Z,6.90
2022-11-20T14:29:01.066Z,6.80
2022-11-20T14:31:28.929Z,6.70
2022-11-20T14:33:56.750Z,6.70
2022-11-20T14:36:26.615Z,6.60
2022-11-20T14:38:54.769Z,6.60
2022-11-20T14:41:24.021Z,6.50
2022-11-20T14:43:58.691Z,6.50
2022-11-20T14:46:26.624Z,6.40
2022-11-20T14:48:58.364Z,6.40
2022-11-20T14:51:42.379Z,6.40
2022-11-20T14:54:12.539Z,6.30
2022-11-20T14:56:39.802Z,6.30
2022-11-20T14:59:08.430Z,6.30
2022-11-20T15:01:36.061Z,6.20
2022-11-20T15:04:10.381Z,6.20
2022-11-20T15:06:38.724Z,6.20
2022-11-20T15:09:14.253Z,6.10
2022-11-20T15:11:53.691Z,6.10
2022-11-20T15:14:21.637Z,6.00
2022-11-20T15:16:49.223Z,5.90
2022-11-20T15:19:22.282Z,5.80
2022-11-20T15:21:49.503Z,5.70
2022-11-20T15:24:16.791Z,5.60
2022-11-20T15:26:44.751Z,5.50
2022-11-20T15:29:15.760Z,5.30
2022-11-20T15:31:46.383Z,5.30
2022-11-20T15:34:14.752Z,5.20
2022-11-20T15:36:42.943Z,5.20
2022-11-20T15:39:11.132Z,5.10
2022-11-20T15:41:38.735Z,5.10
2022-11-20T15:44:06.633Z,5.00
2022-11-20T15:46:40.957Z,5.00
2022-11-20T15:49:13.100Z,5.00
2022-11-20T15:51:43.901Z,5.00
2022-11-20T15:54:14.040Z,5.00
2022-11-20T15:56:41.272Z,4.90
2022-11-20T15:59:08.717Z,4.90
2022-11-20T16:01:36.123Z,4.90
2022-11-20T16:04:03.757Z,4.80
2022-11-20T16:06:31.193Z,4.80
2022-11-20T16:08:58.246Z,4.80
2022-11-20T16:11:25.480Z,4.70
2022-11-20T16:14:12.597Z,4.70
2022-11-20T16:16:41.549Z,4.60
2022-11-20T16:19:13.437Z,4.60
2022-11-20T16:21:42.575Z,4.50
2022-11-20T16:24:13.869Z,4.50
2022-11-20T16:26:42.122Z,4.40
2022-11-20T16:29:11.141Z,4.40
2022-11-20T16:31:39.551Z,4.40
2022-11-20T16:34:12.439Z,4.30
2022-11-20T16:36:43.312Z,4.20
2022-11-20T16:39:10.975Z,4.30
2022-11-20T16:41:38.127Z,4.20
2022-11-20T16:44:11.017Z,4.20
2022-11-20T16:46:39.090Z,4.20
2022-11-20T16:49:11.756Z,4.20
2022-11-20T16:51:39.142Z,4.10
2022-11-20T16:54:08.348Z,4.10
2022-11-20T16:56:36.231Z,4.00
2022-11-20T16:59:04.570Z,4.00
2022-11-20T17:01:32.997Z,4.00
2022-11-20T17:04:05.970Z,3.90
2022-11-20T17:06:36.027Z,3.80
2022-11-20T17:09:04.199Z,3.70
2022-11-20T17:11:32.132Z,3.70
2022-11-20T17:14:00.933Z,3.70
2022-11-20T17:16:28.511Z,3.60
2022-11-20T17:19:02.539Z,3.60
2022-11-20T17:21:31.453Z,3.60
2022-11-20T17:24:03.444Z,3.50
2022-11-20T17:26:31.451Z,3.40
2022-11-20T17:29:02.092Z,3.40
2022-11-20T17:31:30.916Z,3.30
2022-11-20T17:34:00.541Z,3.30
2022-11-20T17:36:28.706Z,3.30
2022-11-20T17:38:56.115Z,3.30
2022-11-20T17:41:25.554Z,3.30
2022-11-20T17:43:55.794Z,3.30
2022-11-20T17:46:26.433Z,3.30
2022-11-20T17:48:55.191Z,3.30
2022-11-20T17:51:24.730Z,3.40
2022-11-20T17:53:55.519Z,3.40
2022-11-20T17:56:42.867Z,3.50
2022-11-20T17:59:13.601Z,3.50
2022-11-20T18:01:43.253Z,3.70
2022-11-20T18:04:11.701Z,3.70
2022-11-20T18:06:39.160Z,3.80
2022-11-20T18:09:07.651Z,3.90
2022-11-20T18:11:38.144Z,4.00
2022-11-20T18:14:33.005Z,4.00
2022-11-20T18:17:06.807Z,4.10
2022-11-20T18:19:44.992Z,4.20
2022-11-20T18:22:23.549Z,4.20
2022-11-20T18:24:50.929Z,4.30
2022-11-20T18:27:20.855Z,4.30
2022-11-20T18:29:51.937Z,4.40
2022-11-20T18:32:21.653Z,4.40
2022-11-20T18:34:49.086Z,4.30
2022-11-20T18:37:16.920Z,4.30
2022-11-20T18:39:44.580Z,4.30
2022-11-20T18:42:34.686Z,4.30
2022-11-20T18:45:04.633Z,4.30
2022-11-20T18:47:36.234Z,4.30
2022-11-20T18:50:05.250Z,4.30
2022-11-20T18:52:37.853Z,4.30
2022-11-20T18:55:06.203Z,4.30
2022-11-20T18:57:33.760Z,4.30
2022-11-20T19:00:07.872Z,4.40
2022-11-20T19:02:40.982Z,4.40
2022-11-20T19:05:11.114Z,4.40
2022-11-20T19:07:38.694Z,4.40
2022-11-20T19:10:06.793Z,4.40
2022-11-20T19:12:34.449Z,4.40
2022-11-20T19:15:02.013Z,4.40
2022-11-20T19:17:29.216Z,4.50
2022-11-20T19:19:56.864Z,4.50
2022-11-20T19:22:24.460Z,4.50
2022-11-20T19:24:52.240Z,4.50
2022-11-20T19:27:19.680Z,4.60
2022-11-20T19:29:47.352Z,4.60
2022-11-20T19:32:14.829Z,4.60
2022-11-20T19:34:42.331Z,4.60
2022-11-20T19:37:10.151Z,4.60
2022-11-20T19:39:37.460Z,4.70
2022-11-20T19:42:04.936Z,4.70
2022-11-20T19:44:33.237Z,4.70
2022-11-20T19:47:02.731Z,4.70
2022-11-20T19:49:30.112Z,4.70
2022-11-20T19:51:57.439Z,4.70
2022-11-20T19:54:24.744Z,4.70
2022-11-20T19:56:52.821Z,4.80
2022-11-20T19:59:20.195Z,4.80
2022-11-20T20:01:48.239Z,4.70
2022-11-20T20:04:15.448Z,4.60
2022-11-20T20:06:42.482Z,4.70
2022-11-20T20:09:12.285Z,4.70
2022-11-20T20:11:40.806Z,4.70
2022-11-20T20:14:13.862Z,4.70
2022-11-20T20:16:41.382Z,4.80
2022-11-20T20:19:08.478Z,4.80
2022-11-20T20:21:36.575Z,4.80
2022-11-20T20:24:04.492Z,4.80
2022-11-20T20:26:33.385Z,4.90
2022-11-20T20:29:01.881Z,4.90
2022-11-20T20:31:31.826Z,4.90
2022-11-20T20:33:59.736Z,4.80
2022-11-20T20:36:27.263Z,4.80
2022-11-20T20:38:56.189Z,4.80
2022-11-20T20:41:25.003Z,4.90
2022-11-20T20:44:12.726Z,4.90
2022-11-20T20:46:41.173Z,5.00
2022-11-20T20:49:08.473Z,4.90
2022-11-20T20:51:36.195Z,4.90
2022-11-20T20:54:04.757Z,4.80
2022-11-20T20:56:31.874Z,4.90
2022-11-20T20:58:59.079Z,4.90
2022-11-20T21:01:29.214Z,4.90
2022-11-20T21:03:57.305Z,4.90
2022-11-20T21:06:25.221Z,4.90
2022-11-20T21:08:52.718Z,4.90
2022-11-20T21:11:20.839Z,4.90
2022-11-20T21:13:49.069Z,4.90
2022-11-20T21:16:18.067Z,4.90
2022-11-20T21:18:45.474Z,5.00
2022-11-20T21:21:34.011Z,5.00
2022-11-20T21:24:01.935Z,5.10
2022-11-20T21:26:30.020Z,5.10
2022-11-20T21:28:57.787Z,5.10
2022-11-20T21:31:26.833Z,5.10
2022-11-20T21:33:56.242Z,5.10
2022-11-20T21:36:26.528Z,5.10
2022-11-20T21:38:55.814Z,5.20
2022-11-20T21:41:24.253Z,5.10
2022-11-20T21:44:23.456Z,5.00
2022-11-20T21:46:42.708Z,5.00
2022-11-20T21:49:10.571Z,5.10
2022-11-20T21:51:38.216Z,5.20
2022-11-20T21:54:05.317Z,5.20
2022-11-20T21:56:32.440Z,5.20
2022-11-20T21:58:59.628Z,5.20
2022-11-20T22:01:29.832Z,5.20
2022-11-20T22:04:00.552Z,5.20
2022-11-20T22:06:32.760Z,5.20
2022-11-20T22:09:00.968Z,5.20
2022-11-20T22:11:28.152Z,5.20
2022-11-20T22:14:15.203Z,5.20
2022-11-20T22:16:42.560Z,5.20
2022-11-20T22:19:09.898Z,5.20
2022-11-20T22:21:40.099Z,5.10
2022-11-20T22:24:07.658Z,5.10
2022-11-20T22:26:40.342Z,5.20
2022-11-20T22:29:08.591Z,5.20
2022-11-20T22:31:35.739Z,5.20
2022-11-20T22:34:03.265Z,5.30
2022-11-20T22:36:32.245Z,5.20
2022-11-20T22:39:03.294Z,5.20
2022-11-20T22:41:31.052Z,5.10
2022-11-20T22:44:00.187Z,5.10
2022-11-20T22:46:29.416Z,5.20
2022-11-20T22:48:58.241Z,5.20
2022-11-20T22:51:31.631Z,5.20
2022-11-20T22:53:59.321Z,5.20
2022-11-20T22:56:26.778Z,5.10
2022-11-20T22:58:54.364Z,5.10
2022-11-20T23:01:25.563Z,5.10
2022-11-20T23:03:56.083Z,5.10
2022-11-20T23:06:23.719Z,5.10
2022-11-20T23:08:52.085Z,5.10
2022-11-20T23:11:21.895Z,5.10
2022-11-20T23:13:54.275Z,5.10
2022-11-20T23:16:21.508Z,5.20
2022-11-20T23:18:48.546Z,5.10
2022-11-20T23:21:18.066Z,5.00
2022-11-20T23:23:49.571Z,5.00
2022-11-20T23:26:18.249Z,4.90
2022-11-20T23:28:45.676Z,4.80
2022-11-20T23:31:14.709Z,4.80
2022-11-20T23:33:43.610Z,4.80
2022-11-20T23:36:11.815Z,4.80
2022-11-20T23:38:38.856Z,4.80
2022-11-20T23:41:06.240Z,4.80
2022-11-20T23:43:33.596Z,4.80
2022-11-20T23:46:01.992Z,4.70
2022-11-20T23:48:31.302Z,4.70
2022-11-20T23:50:58.707Z,4.80
2022-11-20T23:53:26.212Z,4.70
2022-11-20T23:55:55.679Z,4.80
2022-11-20T23:58:26.086Z,4.80
